X  Sluiten METAR luchtvaart weer gegevens         ETWM Twente
Temperatuur
6°C Temperatuur
6°C Dauwpunt
100% Vochtigheid



Wind
20 KM/U
13 MPH
6 M/S
11 KTS



230°
ZW
Huidig weer

Mostly Cloudy with Drizzle Grotendeels bewolkt , Motregen
Luchtdruk 1001 (hPa) - 29.56 (inHg)
Zicht 2 (mijl) - 3 (km)
Vliegveld
Vliegveld code ETWM

Locatie : Twente
Afstand: 7 (km)

Metar:
METAR ETWM 191120Z 23011KT 3100 DZRA BR BKN006 BKN009 06/06 Q1001 YLO

Tijd: 19-01-2021 12:20 CET